createdAt,value
2023-06-11T00:02:01.750Z,18.81
2023-06-11T00:04:31.840Z,18.73
2023-06-11T00:06:59.458Z,18.82
2023-06-11T00:09:27.743Z,18.90
2023-06-11T00:11:55.876Z,18.99
2023-06-11T00:14:24.894Z,19.03
2023-06-11T00:16:52.628Z,19.10
2023-06-11T00:19:21.722Z,19.11
2023-06-11T00:21:50.523Z,19.08
2023-06-11T00:24:18.648Z,19.09
2023-06-11T00:26:46.601Z,19.15
2023-06-11T00:29:14.214Z,19.12
2023-06-11T00:31:41.929Z,19.03
2023-06-11T00:34:11.220Z,19.00
2023-06-11T00:36:41.617Z,19.00
2023-06-11T00:39:11.165Z,18.87
2023-06-11T00:41:40.413Z,18.78
2023-06-11T00:44:09.025Z,18.77
2023-06-11T00:46:39.179Z,18.60
2023-06-11T00:49:07.000Z,18.70
2023-06-11T00:51:35.795Z,18.73
2023-06-11T00:54:03.439Z,18.54
2023-06-11T00:56:31.067Z,18.62
2023-06-11T00:59:00.939Z,18.60
2023-06-11T01:01:33.112Z,18.62
2023-06-11T01:04:06.426Z,18.79
2023-06-11T01:06:36.212Z,18.75
2023-06-11T01:09:05.559Z,18.84
2023-06-11T01:11:36.751Z,18.90
2023-06-11T01:14:14.378Z,18.87
2023-06-11T01:16:54.168Z,18.82
2023-06-11T01:19:44.704Z,18.81
2023-06-11T01:22:20.413Z,18.75
2023-06-11T01:25:15.268Z,18.75
2023-06-11T01:28:08.850Z,18.75
2023-06-11T01:30:46.484Z,18.83
2023-06-11T01:33:15.188Z,18.75
2023-06-11T01:35:50.030Z,18.60
2023-06-11T01:38:19.142Z,18.68
2023-06-11T01:40:50.424Z,18.70
2023-06-11T01:43:18.235Z,18.84
2023-06-11T01:45:46.228Z,18.79
2023-06-11T01:48:13.809Z,18.73
2023-06-11T01:50:42.642Z,18.68
2023-06-11T01:53:12.057Z,18.71
2023-06-11T01:55:41.409Z,18.58
2023-06-11T01:58:09.859Z,18.60
2023-06-11T02:00:38.137Z,18.52
2023-06-11T02:03:06.916Z,18.49
2023-06-11T02:05:35.272Z,18.51
2023-06-11T02:08:03.239Z,18.62
2023-06-11T02:10:31.051Z,18.63
2023-06-11T02:12:59.335Z,18.51
2023-06-11T02:15:27.037Z,18.50
2023-06-11T02:17:54.758Z,18.60
2023-06-11T02:20:23.188Z,18.65
2023-06-11T02:22:51.196Z,18.57
2023-06-11T02:25:19.195Z,18.62
2023-06-11T02:27:51.384Z,18.46
2023-06-11T02:30:19.415Z,18.46
2023-06-11T02:32:47.440Z,18.43
2023-06-11T02:35:15.215Z,18.27
2023-06-11T02:37:42.738Z,18.23
2023-06-11T02:40:11.215Z,18.43
2023-06-11T02:42:38.771Z,18.43
2023-06-11T02:45:06.966Z,18.54
2023-06-11T02:47:34.549Z,18.47
2023-06-11T02:50:02.134Z,18.33
2023-06-11T02:52:30.324Z,18.38
2023-06-11T02:54:57.751Z,18.40
2023-06-11T02:57:25.385Z,18.37
2023-06-11T02:59:52.879Z,18.39
2023-06-11T03:02:20.519Z,18.20
2023-06-11T03:04:48.077Z,18.31
2023-06-11T03:07:16.167Z,18.25
2023-06-11T03:09:43.744Z,18.21
2023-06-11T03:12:12.362Z,18.13
2023-06-11T03:14:40.220Z,18.18
2023-06-11T03:17:07.777Z,18.16
2023-06-11T03:19:35.419Z,18.17
2023-06-11T03:22:03.094Z,18.07
2023-06-11T03:24:30.659Z,18.08
2023-06-11T03:27:07.338Z,18.17
2023-06-11T03:29:34.829Z,18.30
2023-06-11T03:32:02.468Z,18.09
2023-06-11T03:34:30.907Z,18.09
2023-06-11T03:37:00.356Z,18.20
2023-06-11T03:39:28.022Z,18.12
2023-06-11T03:41:58.027Z,18.06
2023-06-11T03:44:28.051Z,18.06
2023-06-11T03:46:56.032Z,17.91
2023-06-11T03:49:23.767Z,18.10
2023-06-11T03:51:51.375Z,18.09
2023-06-11T03:54:19.030Z,18.08
2023-06-11T03:56:46.569Z,18.07
2023-06-11T03:59:14.575Z,17.92
2023-06-11T04:01:42.745Z,17.87
2023-06-11T04:04:10.493Z,17.98
2023-06-11T04:06:39.221Z,17.94
2023-06-11T04:09:08.034Z,18.07
2023-06-11T04:11:35.885Z,18.10
2023-06-11T04:14:03.765Z,18.09
2023-06-11T04:16:31.397Z,18.26
2023-06-11T04:18:59.125Z,18.31
2023-06-11T04:21:26.704Z,18.34
2023-06-11T04:23:54.226Z,18.39
2023-06-11T04:26:24.876Z,18.39
2023-06-11T04:28:54.212Z,18.33
2023-06-11T04:31:27.615Z,18.33
2023-06-11T04:33:57.923Z,18.39
2023-06-11T04:36:26.072Z,18.40
2023-06-11T04:38:55.868Z,18.51
2023-06-11T04:41:27.543Z,18.68
2023-06-11T04:43:55.612Z,18.76
2023-06-11T04:46:23.771Z,18.78
2023-06-11T04:48:51.616Z,18.77
2023-06-11T04:51:21.651Z,18.69
2023-06-11T04:53:53.384Z,18.73
2023-06-11T04:56:21.719Z,18.71
2023-06-11T04:58:50.558Z,18.71
2023-06-11T05:01:18.490Z,18.75
2023-06-11T05:03:48.913Z,18.68
2023-06-11T05:06:22.627Z,18.80
2023-06-11T05:08:54.047Z,18.88
2023-06-11T05:11:21.970Z,18.86
2023-06-11T05:13:49.617Z,18.76
2023-06-11T05:16:22.501Z,18.90
2023-06-11T05:18:51.315Z,18.88
2023-06-11T05:21:19.396Z,19.12
2023-06-11T05:23:47.094Z,19.09
2023-06-11T05:26:14.926Z,19.24
2023-06-11T05:28:45.904Z,19.27
2023-06-11T05:31:14.169Z,19.52
2023-06-11T05:33:45.531Z,19.66
2023-06-11T05:36:13.018Z,19.84
2023-06-11T05:38:40.821Z,20.00
2023-06-11T05:41:08.791Z,19.82
2023-06-11T05:43:36.802Z,19.69
2023-06-11T05:46:04.519Z,19.72
2023-06-11T05:48:33.020Z,20.34
2023-06-11T05:51:01.416Z,21.52
2023-06-11T05:53:29.453Z,21.88
2023-06-11T05:55:58.376Z,22.61
2023-06-11T05:58:25.990Z,22.42
2023-06-11T06:00:55.544Z,22.57
2023-06-11T06:03:23.565Z,22.50
2023-06-11T06:05:51.417Z,22.40
2023-06-11T06:08:18.975Z,22.65
2023-06-11T06:10:46.596Z,22.49
2023-06-11T06:13:14.142Z,22.11
2023-06-11T06:15:43.830Z,21.82
2023-06-11T06:18:13.097Z,21.77
2023-06-11T06:20:43.532Z,21.59
2023-06-11T06:23:12.077Z,21.77
2023-06-11T06:25:42.907Z,22.18
2023-06-11T06:28:12.375Z,22.61
2023-06-11T06:30:41.130Z,22.77
2023-06-11T06:33:09.841Z,23.01
2023-06-11T06:35:38.133Z,23.35
2023-06-11T06:38:06.535Z,23.44
2023-06-11T06:40:36.010Z,23.31
2023-06-11T06:43:03.547Z,23.24
2023-06-11T06:45:34.903Z,22.92
2023-06-11T06:48:10.193Z,22.99
2023-06-11T06:50:38.425Z,22.94
2023-06-11T06:53:06.493Z,22.77
2023-06-11T06:55:34.050Z,22.63
2023-06-11T06:58:06.403Z,22.54
2023-06-11T07:00:34.138Z,22.55
2023-06-11T07:03:02.158Z,22.50
2023-06-11T07:05:30.200Z,22.49
2023-06-11T07:07:57.917Z,22.60
2023-06-11T07:10:25.672Z,22.62
2023-06-11T07:12:54.456Z,22.65
2023-06-11T07:15:22.439Z,22.63
2023-06-11T07:17:49.963Z,22.58
2023-06-11T07:20:20.139Z,22.57
2023-06-11T07:22:47.784Z,22.69
2023-06-11T07:25:16.725Z,22.60
2023-06-11T07:27:44.412Z,22.73
2023-06-11T07:30:13.171Z,22.71
2023-06-11T07:32:41.297Z,22.99
2023-06-11T07:35:09.988Z,22.99
2023-06-11T07:37:37.539Z,22.98
2023-06-11T07:40:06.497Z,23.08
2023-06-11T07:42:34.060Z,23.16
2023-06-11T07:45:01.577Z,23.01
2023-06-11T07:47:29.280Z,23.18
2023-06-11T07:49:56.835Z,23.20
2023-06-11T07:52:26.981Z,23.29
2023-06-11T07:54:54.734Z,23.26
2023-06-11T07:57:22.522Z,23.44
2023-06-11T07:59:50.067Z,23.50
2023-06-11T08:02:18.139Z,23.47
2023-06-11T08:04:46.087Z,23.60
2023-06-11T08:07:13.622Z,23.62
2023-06-11T08:09:41.708Z,23.64
2023-06-11T08:12:09.907Z,23.68
2023-06-11T08:14:37.557Z,23.77
2023-06-11T08:17:05.488Z,23.87
2023-06-11T08:19:33.115Z,23.98
2023-06-11T08:22:02.601Z,24.19
2023-06-11T08:24:32.021Z,24.40
2023-06-11T08:26:59.723Z,24.31
2023-06-11T08:29:27.318Z,24.43
2023-06-11T08:31:54.915Z,24.48
2023-06-11T08:34:22.361Z,24.55
2023-06-11T08:36:49.913Z,24.67
2023-06-11T08:39:17.355Z,24.69
2023-06-11T08:41:44.800Z,24.71
2023-06-11T08:44:12.234Z,24.87
2023-06-11T08:46:40.257Z,24.81
2023-06-11T08:49:08.902Z,24.94
2023-06-11T08:51:38.408Z,25.15
2023-06-11T08:54:08.106Z,25.22
2023-06-11T08:56:36.209Z,25.10
2023-06-11T08:59:03.974Z,25.28
2023-06-11T09:01:32.728Z,25.39
2023-06-11T09:04:01.419Z,25.46
2023-06-11T09:06:31.974Z,25.54
2023-06-11T09:09:06.528Z,25.58
2023-06-11T09:11:35.454Z,25.66
2023-06-11T09:14:04.195Z,25.60
2023-06-11T09:16:40.659Z,25.75
2023-06-11T09:19:18.228Z,25.59
2023-06-11T09:21:54.370Z,25.76
2023-06-11T09:24:23.158Z,25.91
2023-06-11T09:26:56.111Z,26.23
2023-06-11T09:29:28.698Z,26.27
2023-06-11T09:32:23.368Z,26.52
2023-06-11T09:34:57.523Z,26.64
2023-06-11T09:37:25.219Z,26.49
2023-06-11T09:39:52.797Z,26.65
2023-06-11T09:42:25.634Z,26.56
2023-06-11T09:44:58.698Z,26.56
2023-06-11T09:47:28.527Z,26.42
2023-06-11T09:49:57.291Z,26.62
2023-06-11T09:52:27.486Z,26.45
2023-06-11T09:54:56.081Z,26.53
2023-06-11T09:57:23.607Z,26.53
2023-06-11T09:59:51.988Z,26.62
2023-06-11T10:02:19.765Z,26.69
2023-06-11T10:04:47.484Z,26.67
2023-06-11T10:07:16.761Z,26.65
2023-06-11T10:09:45.507Z,26.45
2023-06-11T10:12:16.227Z,26.31
2023-06-11T10:14:54.032Z,26.50
2023-06-11T10:17:23.284Z,26.56
2023-06-11T10:19:52.947Z,26.48
2023-06-11T10:22:34.286Z,26.52
2023-06-11T10:25:02.563Z,26.61
2023-06-11T10:27:37.742Z,26.58
2023-06-11T10:30:08.535Z,26.84
2023-06-11T10:32:48.073Z,26.81
2023-06-11T10:35:23.848Z,26.97
2023-06-11T10:37:51.928Z,27.09
2023-06-11T10:40:21.098Z,27.07
2023-06-11T10:42:53.467Z,27.19
2023-06-11T10:45:21.207Z,27.14
2023-06-11T10:47:51.006Z,27.17
2023-06-11T10:50:31.580Z,27.13
2023-06-11T10:53:09.077Z,27.06
2023-06-11T10:55:42.269Z,26.93
2023-06-11T10:58:10.599Z,26.85
2023-06-11T11:00:38.492Z,26.78
2023-06-11T11:03:06.968Z,26.56
2023-06-11T11:05:34.692Z,26.53
2023-06-11T11:08:02.306Z,26.64
2023-06-11T11:10:30.330Z,26.55
2023-06-11T11:12:58.057Z,26.70
2023-06-11T11:15:25.655Z,26.65
2023-06-11T11:17:53.334Z,26.74
2023-06-11T11:20:21.466Z,26.75
2023-06-11T11:22:53.704Z,26.75
2023-06-11T11:25:29.066Z,26.79
2023-06-11T11:27:57.814Z,26.85
2023-06-11T11:30:29.756Z,26.66
2023-06-11T11:32:58.476Z,26.42
2023-06-11T11:35:27.726Z,26.44
2023-06-11T11:37:56.035Z,26.38
2023-06-11T11:40:23.746Z,26.36
2023-06-11T11:42:59.013Z,26.37
2023-06-11T11:45:34.482Z,26.24
2023-06-11T11:48:05.456Z,26.07
2023-06-11T11:50:34.796Z,25.96
2023-06-11T11:53:07.010Z,26.10
2023-06-11T11:55:51.735Z,25.94
2023-06-11T11:58:27.871Z,26.00
2023-06-11T12:00:59.567Z,25.99
2023-06-11T12:03:28.331Z,26.03
2023-06-11T12:06:23.797Z,26.06
2023-06-11T12:08:51.400Z,26.11
2023-06-11T12:11:19.034Z,26.09
2023-06-11T12:13:46.834Z,26.11
2023-06-11T12:16:16.002Z,26.09
2023-06-11T12:18:43.589Z,26.15
2023-06-11T12:21:11.123Z,26.17
2023-06-11T12:23:38.711Z,26.14
2023-06-11T12:26:06.429Z,26.19
2023-06-11T12:28:34.041Z,26.50
2023-06-11T12:31:01.611Z,26.37
2023-06-11T12:33:29.214Z,26.25
2023-06-11T12:36:01.527Z,26.18
2023-06-11T12:38:29.443Z,26.04
2023-06-11T12:40:57.227Z,25.99
2023-06-11T12:43:24.804Z,25.90
2023-06-11T12:45:52.688Z,25.94
2023-06-11T12:48:20.469Z,25.89
2023-06-11T12:50:48.111Z,26.03
2023-06-11T12:53:15.673Z,26.02
2023-06-11T12:55:43.166Z,26.08
2023-06-11T12:58:11.291Z,26.10
2023-06-11T13:00:38.918Z,26.20
2023-06-11T13:03:06.904Z,26.12
2023-06-11T13:05:34.477Z,26.07
2023-06-11T13:08:02.204Z,26.06
2023-06-11T13:10:29.776Z,26.06
2023-06-11T13:12:59.179Z,26.17
2023-06-11T13:15:27.573Z,26.35
2023-06-11T13:17:55.191Z,26.38
2023-06-11T13:20:23.276Z,26.43
2023-06-11T13:22:51.307Z,26.40
2023-06-11T13:25:18.950Z,26.44
2023-06-11T13:27:46.482Z,26.55
2023-06-11T13:30:14.840Z,26.69
2023-06-11T13:32:42.740Z,26.74
2023-06-11T13:35:10.541Z,26.56
2023-06-11T13:37:38.191Z,26.52
2023-06-11T13:40:06.657Z,26.44
2023-06-11T13:42:34.260Z,26.24
2023-06-11T13:45:05.900Z,26.23
2023-06-11T13:47:33.616Z,26.37
2023-06-11T13:50:01.858Z,26.18
2023-06-11T13:52:29.735Z,26.31
2023-06-11T13:54:57.275Z,26.35
2023-06-11T13:57:29.076Z,26.37
2023-06-11T13:59:56.944Z,26.41
2023-06-11T14:02:25.222Z,26.41
2023-06-11T14:04:54.530Z,26.55
2023-06-11T14:07:22.561Z,26.50
2023-06-11T14:09:50.636Z,26.40
2023-06-11T14:12:18.259Z,26.70
2023-06-11T14:14:46.137Z,26.91
2023-06-11T14:17:13.773Z,26.77
2023-06-11T14:19:41.365Z,26.73
2023-06-11T14:22:09.001Z,26.66
2023-06-11T14:24:36.466Z,26.71
2023-06-11T14:27:04.291Z,26.73
2023-06-11T14:29:31.823Z,26.78
2023-06-11T14:32:03.689Z,26.74
2023-06-11T14:34:31.819Z,26.78
2023-06-11T14:36:59.457Z,26.85
2023-06-11T14:39:26.991Z,26.84
2023-06-11T14:41:54.526Z,26.77
2023-06-11T14:44:22.001Z,27.08
2023-06-11T14:46:50.264Z,27.06
2023-06-11T14:49:21.322Z,26.97
2023-06-11T14:51:49.905Z,26.96
2023-06-11T14:54:17.347Z,26.80
2023-06-11T14:56:44.932Z,26.86
2023-06-11T14:59:12.706Z,26.71
2023-06-11T15:01:43.168Z,26.80
2023-06-11T15:04:12.699Z,26.93
2023-06-11T15:06:42.020Z,26.96
2023-06-11T15:09:10.252Z,27.03
2023-06-11T15:11:37.784Z,27.04
2023-06-11T15:14:06.154Z,27.08
2023-06-11T15:16:33.802Z,27.45
2023-06-11T15:19:01.430Z,27.19
2023-06-11T15:21:28.938Z,27.06
2023-06-11T15:23:56.491Z,26.89
2023-06-11T15:26:23.998Z,27.14
2023-06-11T15:28:51.659Z,27.10
2023-06-11T15:31:19.234Z,26.99
2023-06-11T15:33:46.760Z,27.12
2023-06-11T15:36:38.971Z,26.98
2023-06-11T15:39:06.565Z,26.84
2023-06-11T15:41:34.077Z,26.81
2023-06-11T15:44:01.862Z,26.69
2023-06-11T15:46:29.510Z,26.76
2023-06-11T15:48:57.956Z,26.68
2023-06-11T15:51:25.557Z,26.62
2023-06-11T15:53:53.142Z,26.57
2023-06-11T15:56:20.690Z,26.42
2023-06-11T15:58:48.445Z,26.38
2023-06-11T16:01:16.851Z,26.19
2023-06-11T16:03:44.864Z,26.22
2023-06-11T16:06:12.499Z,26.31
2023-06-11T16:08:40.070Z,26.29
2023-06-11T16:11:07.613Z,26.52
2023-06-11T16:13:35.111Z,26.37
2023-06-11T16:16:02.760Z,26.35
2023-06-11T16:18:30.280Z,26.48
2023-06-11T16:20:57.877Z,26.37
2023-06-11T16:23:25.428Z,26.41
2023-06-11T16:25:52.956Z,26.39
2023-06-11T16:28:20.556Z,26.28
2023-06-11T16:30:48.148Z,26.38
2023-06-11T16:33:15.798Z,26.31
2023-06-11T16:35:43.458Z,26.36
2023-06-11T16:38:10.961Z,26.31
2023-06-11T16:40:38.527Z,26.35
2023-06-11T16:43:06.166Z,26.27
2023-06-11T16:45:33.641Z,26.19
2023-06-11T16:48:01.414Z,26.20
2023-06-11T16:50:29.153Z,26.16
2023-06-11T16:52:56.667Z,26.21
2023-06-11T16:55:24.397Z,26.23
2023-06-11T16:57:51.912Z,26.13
2023-06-11T17:00:20.441Z,26.16
2023-06-11T17:02:50.457Z,26.41
2023-06-11T17:05:18.231Z,26.48
2023-06-11T17:07:45.745Z,26.71
2023-06-11T17:10:13.643Z,26.64
2023-06-11T17:12:46.864Z,26.77
2023-06-11T17:15:17.567Z,26.96
2023-06-11T17:17:46.380Z,26.75
2023-06-11T17:20:15.356Z,26.75
2023-06-11T17:22:47.458Z,26.62
2023-06-11T17:25:15.481Z,26.66
2023-06-11T17:27:43.216Z,26.54
2023-06-11T17:30:11.492Z,26.52
2023-06-11T17:32:39.319Z,26.49
2023-06-11T17:35:08.222Z,26.48
2023-06-11T17:37:36.017Z,26.51
2023-06-11T17:40:05.495Z,26.41
2023-06-11T17:42:33.051Z,26.29
2023-06-11T17:45:00.655Z,26.31
2023-06-11T17:47:28.177Z,26.23
2023-06-11T17:49:55.717Z,26.14
2023-06-11T17:52:23.202Z,25.88
2023-06-11T17:54:52.100Z,25.78
2023-06-11T17:57:21.520Z,25.71
2023-06-11T17:59:49.738Z,25.64
2023-06-11T18:02:17.306Z,25.77
2023-06-11T18:04:44.786Z,25.84
2023-06-11T18:07:12.328Z,25.71
2023-06-11T18:09:39.907Z,25.62
2023-06-11T18:12:07.955Z,25.52
2023-06-11T18:14:35.532Z,25.51
2023-06-11T18:17:03.083Z,25.67
2023-06-11T18:19:30.634Z,25.79
2023-06-11T18:21:58.175Z,25.77
2023-06-11T18:24:29.631Z,25.59
2023-06-11T18:26:57.526Z,25.24
2023-06-11T18:29:27.116Z,24.89
2023-06-11T18:31:56.130Z,24.88
2023-06-11T18:34:23.628Z,24.65
2023-06-11T18:36:51.343Z,24.61
2023-06-11T18:39:20.186Z,24.49
2023-06-11T18:41:47.696Z,24.33
2023-06-11T18:44:15.273Z,24.27
2023-06-11T18:46:45.891Z,24.26
2023-06-11T18:49:13.564Z,24.18
2023-06-11T18:51:41.574Z,24.02
2023-06-11T18:54:11.693Z,23.97
2023-06-11T18:56:39.144Z,23.83
2023-06-11T18:59:08.001Z,23.77
2023-06-11T19:01:35.780Z,23.63
2023-06-11T19:04:03.388Z,23.59
2023-06-11T19:06:34.518Z,23.58
2023-06-11T19:09:01.955Z,23.50
2023-06-11T19:11:33.386Z,23.43
2023-06-11T19:14:00.879Z,23.47
2023-06-11T19:16:28.812Z,23.45
2023-06-11T19:18:56.354Z,23.36
2023-06-11T19:21:26.205Z,23.26
2023-06-11T19:23:54.335Z,23.24
2023-06-11T19:26:26.472Z,23.20
2023-06-11T19:28:54.006Z,23.16
2023-06-11T19:31:21.671Z,23.14
2023-06-11T19:33:49.194Z,23.15
2023-06-11T19:36:16.830Z,23.11
2023-06-11T19:38:45.696Z,22.94
2023-06-11T19:41:15.681Z,22.79
2023-06-11T19:43:43.910Z,22.64
2023-06-11T19:46:11.540Z,22.52
2023-06-11T19:48:39.997Z,22.17
2023-06-11T19:51:09.563Z,21.70
2023-06-11T19:53:39.366Z,21.63
2023-06-11T19:56:14.725Z,21.25
2023-06-11T19:58:42.623Z,21.14
2023-06-11T20:01:11.143Z,20.92
2023-06-11T20:03:38.618Z,20.70
2023-06-11T20:06:06.165Z,20.48
2023-06-11T20:08:33.904Z,20.45
2023-06-11T20:11:08.770Z,20.60
2023-06-11T20:13:37.470Z,20.64
2023-06-11T20:16:05.450Z,20.60
2023-06-11T20:18:37.929Z,20.62
2023-06-11T20:21:05.555Z,20.49
2023-06-11T20:23:33.228Z,20.55
2023-06-11T20:26:00.808Z,20.51
2023-06-11T20:28:35.525Z,20.57
2023-06-11T20:31:05.033Z,20.61
2023-06-11T20:33:33.123Z,20.75
2023-06-11T20:36:00.688Z,20.93
2023-06-11T20:38:28.192Z,20.94
2023-06-11T20:40:59.680Z,20.94
2023-06-11T20:43:27.699Z,20.98
2023-06-11T20:45:58.356Z,20.98
2023-06-11T20:48:28.432Z,21.00
2023-06-11T20:50:57.183Z,20.82
2023-06-11T20:53:33.930Z,20.84
2023-06-11T20:56:03.772Z,20.76
2023-06-11T20:58:31.455Z,20.78
2023-06-11T21:00:59.012Z,20.78
2023-06-11T21:03:26.612Z,20.81
2023-06-11T21:05:57.470Z,20.94
2023-06-11T21:08:25.437Z,20.89
2023-06-11T21:10:53.007Z,20.73
2023-06-11T21:13:22.644Z,20.77
2023-06-11T21:15:50.206Z,20.87
2023-06-11T21:18:17.830Z,20.91
2023-06-11T21:20:45.323Z,20.88
2023-06-11T21:23:12.877Z,20.89
2023-06-11T21:25:40.483Z,20.89
2023-06-11T21:28:11.745Z,20.89
2023-06-11T21:30:39.729Z,20.97
2023-06-11T21:33:07.248Z,20.95
2023-06-11T21:35:34.862Z,20.79
2023-06-11T21:38:03.631Z,20.73
2023-06-11T21:40:31.542Z,20.65
2023-06-11T21:42:58.952Z,20.68
2023-06-11T21:45:26.425Z,20.75
2023-06-11T21:47:57.823Z,20.71
2023-06-11T21:50:25.473Z,20.65
2023-06-11T21:52:54.358Z,20.72
2023-06-11T21:55:21.923Z,20.77
2023-06-11T21:57:49.484Z,20.85
2023-06-11T22:00:17.566Z,20.85
2023-06-11T22:02:45.109Z,20.84
2023-06-11T22:05:15.805Z,20.82
2023-06-11T22:07:50.401Z,20.83
2023-06-11T22:10:18.276Z,20.67
2023-06-11T22:12:46.542Z,20.69
2023-06-11T22:15:14.287Z,20.73
2023-06-11T22:17:41.862Z,20.88
2023-06-11T22:20:11.613Z,20.79
2023-06-11T22:22:43.774Z,20.73
2023-06-11T22:25:13.984Z,20.58
2023-06-11T22:27:43.171Z,20.62
2023-06-11T22:30:12.348Z,20.70
2023-06-11T22:32:40.325Z,20.69
2023-06-11T22:35:12.214Z,20.61
2023-06-11T22:37:39.706Z,20.57
2023-06-11T22:40:12.350Z,20.48
2023-06-11T22:42:40.181Z,20.55
2023-06-11T22:45:08.314Z,20.45
2023-06-11T22:47:36.418Z,20.45
2023-06-11T22:50:04.236Z,20.41
2023-06-11T22:52:39.969Z,20.48
2023-06-11T22:55:09.515Z,20.49
2023-06-11T22:57:37.306Z,20.57
2023-06-11T23:00:07.931Z,20.54
2023-06-11T23:02:35.540Z,20.61
2023-06-11T23:05:04.688Z,20.57
2023-06-11T23:07:32.418Z,20.49
2023-06-11T23:09:59.865Z,20.41
2023-06-11T23:12:27.845Z,20.54
2023-06-11T23:15:00.621Z,20.50
2023-06-11T23:17:28.846Z,20.46
2023-06-11T23:19:56.370Z,20.41
2023-06-11T23:22:25.144Z,20.38
2023-06-11T23:24:52.701Z,20.42
2023-06-11T23:27:22.615Z,20.37
2023-06-11T23:29:51.305Z,20.35
2023-06-11T23:32:20.350Z,20.37
2023-06-11T23:34:50.118Z,20.34
2023-06-11T23:37:21.107Z,20.34
2023-06-11T23:39:48.581Z,20.27
2023-06-11T23:42:16.035Z,20.24
2023-06-11T23:44:43.493Z,20.23
2023-06-11T23:47:11.072Z,20.13
2023-06-11T23:49:42.508Z,20.19
2023-06-11T23:52:10.434Z,20.14
2023-06-11T23:54:37.947Z,20.06
2023-06-11T23:57:06.685Z,19.92
2023-06-11T23:59:34.180Z,20.09
